createdAt,value
2023-03-20T00:02:24.831Z,6.00
2023-03-20T00:04:53.345Z,5.00
2023-03-20T00:07:21.688Z,4.50
2023-03-20T00:09:50.592Z,4.50
2023-03-20T00:12:24.469Z,4.00
2023-03-20T00:14:53.194Z,6.00
2023-03-20T00:17:22.092Z,5.00
2023-03-20T00:19:50.764Z,5.00
2023-03-20T00:22:19.242Z,3.75
2023-03-20T00:24:47.827Z,4.50
2023-03-20T00:27:18.254Z,2.25
2023-03-20T00:29:46.854Z,6.00
2023-03-20T00:32:16.054Z,6.00
2023-03-20T00:34:44.410Z,6.00
2023-03-20T00:37:13.001Z,5.00
2023-03-20T00:39:41.635Z,5.50
2023-03-20T00:42:24.716Z,5.50
2023-03-20T00:44:59.793Z,5.25
2023-03-20T00:47:28.960Z,4.00
2023-03-20T00:49:58.245Z,5.67
2023-03-20T00:52:26.718Z,6.00
2023-03-20T00:54:54.999Z,5.33
2023-03-20T00:57:41.094Z,6.00
2023-03-20T01:00:18.382Z,6.00
2023-03-20T01:02:46.660Z,7.00
2023-03-20T01:05:15.072Z,5.00
2023-03-20T01:07:43.723Z,5.00
2023-03-20T01:10:13.164Z,5.00
2023-03-20T01:12:42.422Z,4.33
2023-03-20T01:15:23.511Z,5.00
2023-03-20T01:17:53.221Z,5.00
2023-03-20T01:20:24.925Z,6.00
2023-03-20T01:22:54.766Z,3.67
2023-03-20T01:25:23.895Z,5.00
2023-03-20T01:27:54.525Z,4.00
2023-03-20T01:30:29.193Z,4.00
2023-03-20T01:32:58.168Z,3.25
2023-03-20T01:35:27.940Z,4.00
2023-03-20T01:37:56.645Z,4.00
2023-03-20T01:40:33.915Z,3.50
2023-03-20T01:43:03.669Z,2.50
2023-03-20T01:45:37.014Z,4.33
2023-03-20T01:48:19.475Z,4.00
2023-03-20T01:50:48.989Z,6.00
2023-03-20T01:53:26.948Z,4.00
2023-03-20T01:55:57.578Z,5.00
2023-03-20T01:58:32.862Z,4.67
2023-03-20T02:01:01.189Z,2.50
2023-03-20T02:03:29.989Z,5.50
2023-03-20T02:05:59.501Z,2.00
2023-03-20T02:08:29.994Z,5.00
2023-03-20T02:11:00.252Z,4.00
2023-03-20T02:13:31.470Z,4.33
2023-03-20T02:16:07.703Z,5.00
2023-03-20T02:18:36.452Z,4.00
2023-03-20T02:21:42.302Z,5.50
2023-03-20T02:24:32.593Z,3.00
2023-03-20T02:27:43.282Z,5.00
2023-03-20T02:30:37.304Z,3.67
2023-03-20T02:33:17.806Z,3.50
2023-03-20T02:36:04.151Z,4.25
2023-03-20T02:39:16.527Z,4.00
2023-03-20T02:41:55.862Z,5.00
2023-03-20T02:44:35.703Z,5.00
2023-03-20T02:47:12.071Z,4.75
2023-03-20T02:49:40.553Z,4.00
2023-03-20T02:52:27.676Z,5.00
2023-03-20T02:55:02.250Z,1.67
2023-03-20T02:57:52.491Z,5.00
2023-03-20T03:00:33.768Z,3.00
2023-03-20T03:03:56.218Z,4.50
2023-03-20T03:06:30.784Z,4.50
2023-03-20T03:09:19.128Z,5.33
2023-03-20T03:11:57.898Z,5.00
2023-03-20T03:14:48.515Z,5.67
2023-03-20T03:17:18.735Z,5.00
2023-03-20T03:19:50.607Z,5.00
2023-03-20T03:22:20.208Z,4.00
2023-03-20T03:24:51.598Z,4.25
2023-03-20T03:27:25.753Z,4.00
2023-03-20T03:29:59.956Z,3.50
2023-03-20T03:32:36.024Z,1.25
2023-03-20T03:35:05.921Z,3.00
2023-03-20T03:38:02.305Z,3.00
2023-03-20T03:40:51.485Z,2.25
2023-03-20T03:43:33.680Z,2.75
2023-03-20T03:46:10.623Z,3.00
2023-03-20T03:48:52.339Z,3.00
2023-03-20T03:51:24.604Z,4.00
2023-03-20T03:54:00.150Z,3.67
2023-03-20T03:56:31.221Z,3.25
2023-03-20T03:59:07.061Z,3.00
2023-03-20T04:01:36.296Z,4.33
2023-03-20T04:04:08.175Z,4.00
2023-03-20T04:06:37.011Z,3.50
2023-03-20T04:09:05.284Z,3.33
2023-03-20T04:11:33.973Z,4.00
2023-03-20T04:14:02.456Z,3.00
2023-03-20T04:16:31.310Z,3.00
2023-03-20T04:18:59.831Z,3.33
2023-03-20T04:21:28.209Z,3.67
2023-03-20T04:23:56.584Z,4.00
2023-03-20T04:26:24.968Z,3.00
2023-03-20T04:28:53.397Z,3.75
2023-03-20T04:31:22.149Z,0.00
2023-03-20T04:33:50.628Z,4.50
2023-03-20T04:36:19.254Z,4.00
2023-03-20T04:38:47.888Z,5.00
2023-03-20T04:41:16.477Z,5.00
2023-03-20T04:43:44.859Z,4.33
2023-03-20T04:46:13.344Z,5.75
2023-03-20T04:48:42.027Z,6.00
2023-03-20T04:51:10.702Z,7.00
2023-03-20T04:53:38.982Z,5.00
2023-03-20T04:56:08.181Z,4.25
2023-03-20T04:58:36.869Z,5.67
2023-03-20T05:01:05.935Z,6.00
2023-03-20T05:03:34.446Z,4.00
2023-03-20T05:06:02.936Z,4.00
2023-03-20T05:08:31.714Z,2.67
2023-03-20T05:11:00.125Z,4.33
2023-03-20T05:13:28.473Z,6.25
2023-03-20T05:15:57.060Z,4.00
2023-03-20T05:18:25.433Z,5.50
2023-03-20T05:20:53.714Z,5.75
2023-03-20T05:23:22.297Z,3.75
2023-03-20T05:25:50.575Z,4.67
2023-03-20T05:28:19.064Z,5.00
2023-03-20T05:30:47.542Z,4.75
2023-03-20T05:33:15.969Z,3.50
2023-03-20T05:35:44.847Z,5.00
2023-03-20T05:38:13.198Z,1.75
2023-03-20T05:40:44.736Z,4.25
2023-03-20T05:43:13.118Z,5.00
2023-03-20T05:45:43.029Z,4.00
2023-03-20T05:48:11.731Z,4.75
2023-03-20T05:50:40.506Z,3.25
2023-03-20T05:53:09.607Z,5.25
2023-03-20T05:55:38.289Z,3.00
2023-03-20T05:58:06.874Z,6.00
2023-03-20T06:00:35.258Z,6.25
2023-03-20T06:03:03.816Z,4.00
2023-03-20T06:05:32.629Z,3.75
2023-03-20T06:08:02.008Z,5.00
2023-03-20T06:10:30.515Z,7.75
2023-03-20T06:13:01.350Z,7.25
2023-03-20T06:15:29.729Z,7.50
2023-03-20T06:17:59.136Z,6.50
2023-03-20T06:20:27.514Z,8.00
2023-03-20T06:22:55.995Z,6.00
2023-03-20T06:25:24.480Z,8.50
2023-03-20T06:27:53.097Z,18.00
2023-03-20T06:30:21.647Z,17.00
2023-03-20T06:32:50.240Z,17.00
2023-03-20T06:35:19.122Z,16.50
2023-03-20T06:37:47.616Z,15.33
2023-03-20T06:40:16.327Z,13.00
2023-03-20T06:42:44.561Z,13.33
2023-03-20T06:45:13.554Z,14.00
2023-03-20T06:47:42.139Z,13.33
2023-03-20T06:50:11.160Z,15.33
2023-03-20T06:52:40.145Z,13.67
2023-03-20T06:55:09.018Z,13.00
2023-03-20T06:57:37.602Z,14.00
2023-03-20T07:00:08.160Z,11.33
2023-03-20T07:02:36.456Z,14.00
2023-03-20T07:05:05.432Z,13.67
2023-03-20T07:07:33.689Z,10.67
2023-03-20T07:10:02.895Z,9.00
2023-03-20T07:12:31.375Z,13.00
2023-03-20T07:14:59.855Z,12.33
2023-03-20T07:17:28.164Z,13.00
2023-03-20T07:19:57.116Z,12.50
2023-03-20T07:22:27.265Z,13.50
2023-03-20T07:24:55.516Z,14.50
2023-03-20T07:27:24.204Z,15.33
2023-03-20T07:29:52.681Z,16.33
2023-03-20T07:32:21.270Z,15.00
2023-03-20T07:34:50.464Z,16.25
2023-03-20T07:37:19.254Z,11.33
2023-03-20T07:39:47.736Z,12.00
2023-03-20T07:42:16.832Z,13.00
2023-03-20T07:44:45.111Z,13.25
2023-03-20T07:47:13.486Z,10.50
2023-03-20T07:49:41.863Z,9.33
2023-03-20T07:52:10.264Z,9.75
2023-03-20T07:54:38.832Z,13.00
2023-03-20T07:57:07.211Z,10.00
2023-03-20T07:59:36.024Z,11.50
2023-03-20T08:02:04.476Z,11.00
2023-03-20T08:04:32.867Z,11.00
2023-03-20T08:07:01.309Z,10.00
2023-03-20T08:09:29.750Z,10.67
2023-03-20T08:11:57.904Z,11.33
2023-03-20T08:14:26.067Z,9.00
2023-03-20T08:17:12.336Z,8.75
2023-03-20T08:19:42.337Z,9.50
2023-03-20T08:22:10.456Z,11.67
2023-03-20T08:24:38.653Z,10.25
2023-03-20T08:27:07.965Z,11.00
2023-03-20T08:29:36.280Z,9.00
2023-03-20T08:32:04.573Z,7.50
2023-03-20T08:34:33.766Z,10.33
2023-03-20T08:37:04.920Z,12.75
2023-03-20T08:39:33.488Z,11.50
2023-03-20T08:42:01.891Z,10.50
2023-03-20T08:44:30.311Z,9.00
2023-03-20T08:46:58.468Z,12.25
2023-03-20T08:49:28.159Z,10.00
2023-03-20T08:51:56.321Z,7.50
2023-03-20T08:54:24.589Z,9.00
2023-03-20T08:56:52.786Z,8.50
2023-03-20T08:59:21.388Z,7.25
2023-03-20T09:01:50.554Z,7.33
2023-03-20T09:04:19.025Z,9.00
2023-03-20T09:06:47.357Z,8.00
2023-03-20T09:09:16.363Z,11.00
2023-03-20T09:11:44.640Z,10.50
2023-03-20T09:14:12.834Z,8.00
2023-03-20T09:16:41.501Z,7.75
2023-03-20T09:19:09.666Z,9.67
2023-03-20T09:21:37.841Z,9.00
2023-03-20T09:24:06.485Z,9.00
2023-03-20T09:26:34.613Z,6.50
2023-03-20T09:29:02.816Z,7.00
2023-03-20T09:31:31.126Z,10.50
2023-03-20T09:33:59.341Z,8.50
2023-03-20T09:36:27.516Z,8.67
2023-03-20T09:38:55.792Z,7.75
2023-03-20T09:41:28.230Z,6.67
2023-03-20T09:44:05.556Z,2.00
2023-03-20T09:46:38.833Z,8.00
2023-03-20T09:49:27.315Z,6.50
2023-03-20T09:51:57.579Z,10.00
2023-03-20T09:54:47.111Z,8.33
2023-03-20T09:57:29.566Z,9.00
2023-03-20T10:00:30.025Z,9.00
2023-03-20T10:03:18.014Z,7.00
2023-03-20T10:06:05.104Z,7.67
2023-03-20T10:08:36.505Z,6.00
2023-03-20T10:11:16.345Z,7.75
2023-03-20T10:13:59.345Z,9.25
2023-03-20T10:17:12.247Z,7.33
2023-03-20T10:20:13.710Z,8.00
2023-03-20T10:22:47.780Z,8.75
2023-03-20T10:25:28.816Z,8.50
2023-03-20T10:28:05.226Z,9.67
2023-03-20T10:30:39.360Z,7.00
2023-03-20T10:33:26.893Z,8.75
2023-03-20T10:36:19.042Z,8.25
2023-03-20T10:39:06.906Z,8.00
2023-03-20T10:41:40.080Z,8.33
2023-03-20T10:44:16.766Z,7.00
2023-03-20T10:46:49.130Z,9.75
2023-03-20T10:49:33.866Z,5.00
2023-03-20T10:52:05.769Z,9.00
2023-03-20T10:54:41.923Z,8.25
2023-03-20T10:57:18.797Z,7.67
2023-03-20T10:59:55.850Z,6.25
2023-03-20T11:02:28.759Z,7.50
2023-03-20T11:04:59.247Z,6.67
2023-03-20T11:07:32.439Z,7.33
2023-03-20T11:10:08.946Z,9.00
2023-03-20T11:12:48.480Z,7.00
2023-03-20T11:15:32.376Z,8.00
2023-03-20T11:18:15.983Z,9.75
2023-03-20T11:20:51.973Z,10.75
2023-03-20T11:23:24.809Z,9.75
2023-03-20T11:26:02.363Z,12.33
2023-03-20T11:28:47.760Z,10.00
2023-03-20T11:31:25.574Z,10.75
2023-03-20T11:34:07.437Z,10.67
2023-03-20T11:36:40.228Z,10.50
2023-03-20T11:39:14.986Z,11.00
2023-03-20T11:41:51.499Z,11.75
2023-03-20T11:44:29.546Z,11.25
2023-03-20T11:47:05.955Z,7.50
2023-03-20T11:49:48.010Z,11.00
2023-03-20T11:52:22.084Z,8.00
2023-03-20T11:54:53.149Z,8.75
2023-03-20T11:57:37.499Z,11.25
2023-03-20T12:00:11.817Z,7.33
2023-03-20T12:02:43.511Z,10.33
2023-03-20T12:05:37.405Z,9.00
2023-03-20T12:08:11.453Z,9.50
2023-03-20T12:10:43.340Z,10.50
2023-03-20T12:13:12.365Z,8.50
2023-03-20T12:15:44.954Z,9.25
2023-03-20T12:18:15.797Z,10.33
2023-03-20T12:21:02.194Z,8.75
2023-03-20T12:23:32.790Z,9.33
2023-03-20T12:26:07.449Z,8.25
2023-03-20T12:28:40.119Z,8.25
2023-03-20T12:31:33.162Z,10.00
2023-03-20T12:34:23.720Z,9.67
2023-03-20T12:36:57.725Z,9.00
2023-03-20T12:39:29.703Z,10.00
2023-03-20T12:42:04.866Z,8.75
2023-03-20T12:44:39.843Z,6.75
2023-03-20T12:47:28.229Z,6.00
2023-03-20T12:50:14.978Z,7.33
2023-03-20T12:52:52.399Z,6.00
2023-03-20T12:55:38.953Z,7.67
2023-03-20T12:58:19.500Z,6.00
2023-03-20T13:00:49.852Z,7.00
2023-03-20T13:03:38.888Z,2.00
2023-03-20T13:06:15.868Z,6.00
2023-03-20T13:09:09.550Z,6.33
2023-03-20T13:11:51.197Z,6.50
2023-03-20T13:14:29.080Z,7.50
2023-03-20T13:17:23.518Z,7.00
2023-03-20T13:20:00.669Z,6.00
2023-03-20T13:22:53.212Z,5.67
2023-03-20T13:25:50.214Z,7.00
2023-03-20T13:28:27.327Z,6.75
2023-03-20T13:31:14.191Z,4.75
2023-03-20T13:34:31.835Z,6.00
2023-03-20T13:37:25.618Z,4.75
2023-03-20T13:40:22.833Z,5.50
2023-03-20T13:42:57.770Z,7.00
2023-03-20T13:45:37.053Z,6.00
2023-03-20T13:48:25.225Z,5.75
2023-03-20T13:51:28.933Z,7.00
2023-03-20T13:54:12.119Z,5.75
2023-03-20T13:57:06.504Z,6.00
2023-03-20T13:59:48.055Z,7.00
2023-03-20T14:02:22.414Z,7.00
2023-03-20T14:05:01.590Z,7.00
2023-03-20T14:07:31.214Z,7.33
2023-03-20T14:10:22.097Z,8.00
2023-03-20T14:12:54.850Z,7.33
2023-03-20T14:15:27.024Z,7.50
2023-03-20T14:17:55.975Z,2.67
2023-03-20T14:20:27.763Z,6.25
2023-03-20T14:22:57.302Z,7.00
2023-03-20T14:25:35.325Z,7.00
2023-03-20T14:28:10.296Z,8.25
2023-03-20T14:30:46.836Z,7.75
2023-03-20T14:33:14.981Z,6.75
2023-03-20T14:36:08.821Z,7.00
2023-03-20T14:38:54.301Z,7.25
2023-03-20T14:41:30.830Z,7.50
2023-03-20T14:44:20.765Z,6.00
2023-03-20T14:46:56.701Z,8.00
2023-03-20T14:49:56.450Z,6.50
2023-03-20T14:52:33.411Z,7.00
2023-03-20T14:55:19.857Z,10.00
2023-03-20T14:57:56.434Z,6.75
2023-03-20T15:00:27.800Z,6.00
2023-03-20T15:03:08.919Z,6.00
2023-03-20T15:05:38.838Z,9.25
2023-03-20T15:08:08.724Z,5.00
2023-03-20T15:10:44.285Z,10.00
2023-03-20T15:13:14.205Z,7.50
2023-03-20T15:16:13.082Z,5.50
2023-03-20T15:18:47.256Z,6.00
2023-03-20T15:21:31.354Z,6.67
2023-03-20T15:24:00.245Z,2.75
2023-03-20T15:26:29.926Z,6.75
2023-03-20T15:29:04.168Z,7.00
2023-03-20T15:31:34.873Z,6.50
2023-03-20T15:34:07.318Z,8.00
2023-03-20T15:36:39.891Z,6.00
2023-03-20T15:39:19.069Z,6.75
2023-03-20T15:41:58.470Z,7.00
2023-03-20T15:44:28.709Z,7.25
2023-03-20T15:46:56.867Z,4.50
2023-03-20T15:49:26.365Z,5.67
2023-03-20T15:51:57.703Z,6.67
2023-03-20T15:54:26.276Z,6.00
2023-03-20T15:56:57.513Z,6.75
2023-03-20T15:59:29.513Z,6.00
2023-03-20T16:01:59.292Z,5.75
2023-03-20T16:04:28.097Z,6.75
2023-03-20T16:06:59.316Z,6.25
2023-03-20T16:09:28.340Z,8.00
2023-03-20T16:12:01.578Z,5.00
2023-03-20T16:14:32.097Z,7.33
2023-03-20T16:17:02.189Z,6.25
2023-03-20T16:19:30.837Z,7.00
2023-03-20T16:22:16.941Z,7.00
2023-03-20T16:24:47.704Z,7.33
2023-03-20T16:27:24.367Z,7.75
2023-03-20T16:29:53.692Z,4.00
2023-03-20T16:32:40.479Z,6.50
2023-03-20T16:35:18.519Z,8.00
2023-03-20T16:37:54.012Z,6.50
2023-03-20T16:40:32.074Z,6.67
2023-03-20T16:43:12.766Z,7.67
2023-03-20T16:45:44.678Z,3.00
2023-03-20T16:48:13.093Z,7.33
2023-03-20T16:50:46.855Z,6.00
2023-03-20T16:53:16.609Z,5.75
2023-03-20T16:55:49.861Z,7.50
2023-03-20T16:58:24.086Z,3.00
2023-03-20T17:01:01.920Z,8.33
2023-03-20T17:03:40.104Z,7.33
2023-03-20T17:06:22.085Z,5.75
2023-03-20T17:08:55.520Z,8.67
2023-03-20T17:11:33.868Z,6.25
2023-03-20T17:14:04.368Z,9.75
2023-03-20T17:16:34.139Z,8.75
2023-03-20T17:19:10.819Z,0.00
2023-03-20T17:21:39.315Z,7.50
2023-03-20T17:24:07.746Z,8.00
2023-03-20T17:26:36.113Z,9.50
2023-03-20T17:29:05.183Z,7.67
2023-03-20T17:31:33.505Z,7.00
2023-03-20T17:34:01.653Z,6.33
2023-03-20T17:36:34.561Z,6.00
2023-03-20T17:39:03.081Z,7.33
2023-03-20T17:41:31.245Z,6.33
2023-03-20T17:43:59.524Z,9.33
2023-03-20T17:46:30.400Z,8.67
2023-03-20T17:49:06.575Z,8.25
2023-03-20T17:51:35.514Z,9.67
2023-03-20T17:54:04.105Z,8.00
2023-03-20T17:56:33.092Z,7.67
2023-03-20T17:59:02.591Z,9.50
2023-03-20T18:01:32.780Z,10.50
2023-03-20T18:04:01.350Z,7.00
2023-03-20T18:06:31.785Z,10.67
2023-03-20T18:09:01.685Z,8.00
2023-03-20T18:11:30.350Z,11.00
2023-03-20T18:13:59.928Z,10.50
2023-03-20T18:16:28.218Z,7.25
2023-03-20T18:18:57.145Z,6.67
2023-03-20T18:21:25.351Z,6.67
2023-03-20T18:23:53.501Z,4.00
2023-03-20T18:26:26.704Z,5.25
2023-03-20T18:28:55.838Z,7.33
2023-03-20T18:31:24.099Z,7.25
2023-03-20T18:33:53.524Z,7.00
2023-03-20T18:36:23.733Z,5.33
2023-03-20T18:38:52.719Z,4.67
2023-03-20T18:41:21.362Z,6.33
2023-03-20T18:43:50.904Z,6.00
2023-03-20T18:46:21.497Z,6.67
2023-03-20T18:48:52.139Z,7.50
2023-03-20T18:51:21.384Z,6.25
2023-03-20T18:53:49.493Z,6.00
2023-03-20T18:56:23.345Z,7.25
2023-03-20T18:58:52.574Z,3.00
2023-03-20T19:01:21.457Z,5.50
2023-03-20T19:03:49.874Z,6.25
2023-03-20T19:06:20.675Z,5.75
2023-03-20T19:08:50.087Z,6.75
2023-03-20T19:11:21.401Z,6.50
2023-03-20T19:13:52.638Z,8.50
2023-03-20T19:16:27.078Z,8.00
2023-03-20T19:18:58.762Z,7.00
2023-03-20T19:21:29.023Z,8.50
2023-03-20T19:23:59.691Z,6.00
2023-03-20T19:26:29.794Z,7.67
2023-03-20T19:29:00.840Z,6.75
2023-03-20T19:31:29.449Z,7.00
2023-03-20T19:33:57.678Z,6.75
2023-03-20T19:36:34.654Z,6.00
2023-03-20T19:39:05.295Z,6.75
2023-03-20T19:41:34.168Z,5.00
2023-03-20T19:44:02.463Z,8.00
2023-03-20T19:46:40.696Z,8.33
2023-03-20T19:49:18.955Z,8.00
2023-03-20T19:51:48.689Z,8.00
2023-03-20T19:54:17.225Z,7.33
2023-03-20T19:56:45.644Z,6.75
2023-03-20T19:59:16.398Z,7.00
2023-03-20T20:01:45.765Z,8.50
2023-03-20T20:04:14.316Z,9.00
2023-03-20T20:06:42.608Z,6.33
2023-03-20T20:09:10.858Z,7.00
2023-03-20T20:11:39.143Z,8.50
2023-03-20T20:14:10.530Z,6.33
2023-03-20T20:16:43.280Z,5.75
2023-03-20T20:19:12.104Z,7.00
2023-03-20T20:24:28.835Z,8.00
2023-03-20T20:27:15.123Z,6.33
2023-03-20T20:29:49.771Z,9.67
2023-03-20T20:32:19.661Z,7.75
2023-03-20T20:38:28.122Z,7.50
2023-03-20T20:40:30.925Z,8.25
2023-03-20T20:43:01.839Z,10.50
2023-03-20T20:45:31.746Z,9.00
2023-03-20T20:48:00.493Z,7.67
2023-03-20T20:50:30.898Z,15.00
2023-03-20T20:52:59.706Z,16.00
2023-03-20T20:55:28.168Z,17.33
2023-03-20T20:57:57.104Z,13.00
2023-03-20T21:00:41.227Z,16.00
2023-03-20T21:03:13.985Z,16.50
2023-03-20T21:05:43.525Z,16.33
2023-03-20T21:08:13.510Z,14.50
2023-03-20T21:10:42.009Z,13.50
2023-03-20T21:13:10.440Z,11.25
2023-03-20T21:15:39.756Z,16.50
2023-03-20T21:18:08.417Z,14.25
2023-03-20T21:20:36.744Z,14.00
2023-03-20T21:23:05.004Z,13.00
2023-03-20T21:25:40.668Z,11.33
2023-03-20T21:28:10.832Z,9.00
2023-03-20T21:30:51.069Z,10.33
2023-03-20T21:33:24.658Z,8.50
2023-03-20T21:35:53.913Z,11.25
2023-03-20T21:39:05.935Z,10.67
2023-03-20T21:41:11.450Z,9.33
2023-03-20T21:43:39.951Z,9.00
2023-03-20T21:58:08.325Z,8.00
2023-03-20T22:03:09.157Z,10.67
2023-03-20T22:37:28.378Z,7.00
2023-03-20T22:40:18.563Z,9.00
2023-03-20T22:42:48.976Z,9.75
2023-03-20T22:45:03.977Z,7.75
2023-03-20T22:47:32.931Z,8.25
2023-03-20T22:50:01.504Z,9.50
2023-03-20T22:52:45.432Z,9.33
2023-03-20T22:55:17.549Z,9.00
2023-03-20T22:57:59.973Z,7.67
2023-03-20T23:00:34.437Z,8.67
2023-03-20T23:03:17.107Z,9.25
2023-03-20T23:05:48.669Z,9.75
2023-03-20T23:08:17.143Z,7.50
2023-03-20T23:10:47.601Z,7.00
2023-03-20T23:13:17.455Z,8.00
2023-03-20T23:15:47.055Z,6.25
2023-03-20T23:18:15.578Z,8.00
2023-03-20T23:20:43.798Z,6.75
2023-03-20T23:23:12.024Z,8.00
2023-03-20T23:25:40.717Z,6.75
2023-03-20T23:28:10.025Z,6.33
2023-03-20T23:30:46.504Z,7.67
2023-03-20T23:33:16.302Z,7.33
2023-03-20T23:35:44.503Z,6.50
2023-03-20T23:38:12.625Z,6.25
2023-03-20T23:40:41.275Z,6.25
2023-03-20T23:43:09.434Z,6.75
2023-03-20T23:45:37.769Z,7.50
2023-03-20T23:48:06.390Z,7.25
2023-03-20T23:50:51.593Z,4.67
2023-03-20T23:53:21.465Z,5.50
2023-03-20T23:55:52.358Z,7.00
2023-03-20T23:58:21.416Z,7.50
